Time;durP1;ratioP1;P1;durP2;ratioP2;P2;SDS_P1;SDS_P2;PMS_P1;PMS_P2;Temp;Humidity;BMP_temperature;BMP_pressure;BME280_temperature;BME280_humidity;BME280_pressure;Samples;Min_cycle;Max_cycle;Signal;HPM_P1;HPM_P2
2022/07/29 00:01:52;;;;;;;5.53;4.82;;;;;;;18.29;66.22;96610.03;5114034;28;20047;-71
2022/07/29 00:04:19;;;;;;;5.05;3.78;;;;;;;18.32;66.55;96609.84;5114168;28;20047;-72
2022/07/29 00:06:46;;;;;;;5.03;4.50;;;;;;;18.33;66.23;96608.88;5114315;28;20539;-75
2022/07/29 00:09:14;;;;;;;5.25;4.75;;;;;;;18.35;65.96;96608.78;5114084;28;20040;-71
2022/07/29 00:11:41;;;;;;;5.28;4.50;;;;;;;18.36;66.39;96608.66;5114014;28;20043;-74
2022/07/29 00:14:09;;;;;;;5.07;4.40;;;;;;;18.40;66.34;96619.91;5113803;28;20055;-74
2022/07/29 00:16:36;;;;;;;5.20;4.63;;;;;;;18.38;66.09;96616.50;5113574;28;20105;-74
2022/07/29 00:19:04;;;;;;;4.65;4.25;;;;;;;18.36;65.81;96621.91;5113745;28;20469;-74
2022/07/29 00:21:31;;;;;;;8.70;5.15;;;;;;;18.30;66.30;96619.66;5114098;28;20082;-73
2022/07/29 00:23:58;;;;;;;5.30;4.70;;;;;;;18.16;67.53;96616.19;5113806;28;20054;-71
2022/07/29 00:26:31;;;;;;;6.80;4.60;;;;;;;18.16;67.34;96604.75;5113878;28;20044;-70
2022/07/29 00:28:58;;;;;;;5.80;4.82;;;;;;;18.17;67.10;96602.00;5113899;28;20044;-72
2022/07/29 00:31:25;;;;;;;6.68;4.80;;;;;;;18.20;67.01;96603.59;5113624;28;20047;-73
2022/07/29 00:33:52;;;;;;;6.30;4.80;;;;;;;18.15;67.14;96600.41;5113673;28;20505;-69
2022/07/29 00:36:20;;;;;;;8.55;4.68;;;;;;;18.14;66.82;96596.91;5113872;28;20045;-71
2022/07/29 00:38:47;;;;;;;6.63;4.45;;;;;;;18.09;67.25;96595.50;5113441;28;20071;-71
2022/07/29 00:41:14;;;;;;;4.97;4.45;;;;;;;18.07;67.20;96592.97;5113632;28;20049;-75
2022/07/29 00:43:43;;;;;;;7.47;5.90;;;;;;;18.04;67.05;96596.66;5113569;28;20050;-71
2022/07/29 00:46:10;;;;;;;5.05;4.30;;;;;;;18.01;67.20;96588.06;5113436;28;20043;-76
2022/07/29 00:48:38;;;;;;;10.18;4.57;;;;;;;17.97;67.46;96594.53;5113535;28;20067;-70
2022/07/29 00:51:07;;;;;;;7.32;4.85;;;;;;;17.94;67.66;96595.56;5113506;28;20124;-73
2022/07/29 00:53:36;;;;;;;5.95;5.00;;;;;;;17.96;67.58;96583.09;5113480;28;20047;-69
2022/07/29 00:56:04;;;;;;;8.57;4.57;;;;;;;17.94;67.82;96592.91;5113632;28;20409;-69
2022/07/29 00:58:32;;;;;;;6.22;4.45;;;;;;;17.93;67.88;96588.59;5113528;28;20079;-72
2022/07/29 01:01:02;;;;;;;4.68;4.10;;;;;;;17.79;68.35;96586.88;5113442;28;20065;-72
2022/07/29 01:03:29;;;;;;;9.07;4.75;;;;;;;17.79;68.32;96581.59;5113284;28;20058;-72
2022/07/29 01:05:56;;;;;;;7.30;4.60;;;;;;;17.78;68.12;96586.03;5113399;28;20044;-73
2022/07/29 01:08:24;;;;;;;5.10;4.15;;;;;;;17.80;68.02;96586.78;5113293;28;20054;-71
2022/07/29 01:10:52;;;;;;;6.95;4.32;;;;;;;17.78;67.89;96593.09;5113407;28;20472;-71
2022/07/29 01:13:20;;;;;;;5.05;4.47;;;;;;;17.76;68.32;96589.72;5113284;28;20047;-74
2022/07/29 01:15:53;;;;;;;5.53;4.30;;;;;;;17.73;67.96;96596.06;5113433;28;20485;-71
2022/07/29 01:18:25;;;;;;;4.28;3.88;;;;;;;17.70;68.06;96590.13;5113312;28;20047;-75
2022/07/29 01:21:19;;;;;;;5.13;3.72;;;;;;;17.71;68.02;96592.69;5113457;28;20122;-71
2022/07/29 01:24:00;;;;;;;6.22;4.10;;;;;;;17.67;67.87;96593.84;5095523;28;20390;-73
2022/07/29 01:26:35;;;;;;;4.28;3.88;;;;;;;17.64;68.04;96588.75;5113340;28;20710;-71
2022/07/29 01:29:15;;;;;;;4.30;3.90;;;;;;;17.60;68.06;96588.09;5114144;28;20087;-74
2022/07/29 01:31:46;;;;;;;4.65;3.90;;;;;;;17.57;68.12;96595.41;5117064;28;20453;-72
2022/07/29 01:34:19;;;;;;;6.97;3.33;;;;;;;17.58;67.94;96586.50;5117224;28;20147;-75
2022/07/29 01:36:52;;;;;;;4.50;3.75;;;;;;;17.59;67.77;96586.41;5116932;28;20126;-75
2022/07/29 01:39:24;;;;;;;3.70;3.40;;;;;;;17.55;67.55;96583.09;5116853;28;20055;-72
2022/07/29 01:41:58;;;;;;;3.85;3.45;;;;;;;17.53;67.51;96589.44;5116859;28;20093;-74
2022/07/29 01:44:33;;;;;;;5.70;3.55;;;;;;;17.47;67.62;96581.91;5116976;28;20048;-73
2022/07/29 01:47:06;;;;;;;4.07;3.53;;;;;;;17.42;68.10;96582.19;5116954;28;20135;-71
2022/07/29 01:49:37;;;;;;;5.10;3.53;;;;;;;17.42;67.87;96587.50;5116689;28;20043;-73
2022/07/29 01:52:10;;;;;;;7.68;3.65;;;;;;;17.31;68.31;96577.63;5116780;28;20082;-72
2022/07/29 01:54:43;;;;;;;3.72;3.42;;;;;;;17.33;68.11;96580.19;5116859;28;20047;-70
2022/07/29 01:57:12;;;;;;;4.20;3.50;;;;;;;17.33;68.20;96585.47;5116862;28;20554;-73
2022/07/29 01:59:42;;;;;;;3.75;3.45;;;;;;;17.29;68.13;96582.16;5116644;28;20447;-69
2022/07/29 02:02:12;;;;;;;3.67;3.38;;;;;;;17.28;68.05;96580.47;5116509;28;20453;-71
2022/07/29 02:04:41;;;;;;;5.50;3.43;;;;;;;17.24;68.07;96579.81;5116616;28;20126;-72
2022/07/29 02:07:11;;;;;;;4.05;3.50;;;;;;;17.20;68.51;96580.97;5116350;28;20043;-73
2022/07/29 02:09:40;;;;;;;4.03;3.63;;;;;;;17.18;68.67;96573.13;5116618;28;20096;-72
2022/07/29 02:12:09;;;;;;;3.88;3.58;;;;;;;17.15;68.88;96567.19;5116492;28;20047;-73
2022/07/29 02:14:39;;;;;;;5.07;3.25;;;;;;;17.10;69.02;96569.28;5116220;28;20561;-75
2022/07/29 02:17:08;;;;;;;4.60;3.80;;;;;;;17.12;68.89;96565.59;5116358;28;20082;-71
2022/07/29 02:19:39;;;;;;;5.38;3.38;;;;;;;17.13;68.71;96562.00;5116196;28;20063;-72
2022/07/29 02:22:07;;;;;;;4.03;2.97;;;;;;;17.09;68.70;96560.50;5116188;28;20516;-72
2022/07/29 02:24:38;;;;;;;6.68;3.10;;;;;;;17.05;68.88;96553.69;5116192;28;20100;-73
2022/07/29 02:27:05;;;;;;;4.15;3.53;;;;;;;17.01;69.21;96558.31;5116007;28;20086;-74
2022/07/29 02:29:35;;;;;;;3.92;3.50;;;;;;;16.95;70.16;96555.22;5115947;28;20052;-70
2022/07/29 02:32:04;;;;;;;4.50;3.80;;;;;;;16.95;69.56;96558.72;5116010;28;20047;-71
2022/07/29 02:34:34;;;;;;;3.72;3.03;;;;;;;16.94;69.51;96557.00;5115617;28;20058;-75
2022/07/29 02:37:01;;;;;;;6.82;3.97;;;;;;;16.89;69.68;96553.84;5116080;28;20058;-71
2022/07/29 02:39:29;;;;;;;3.75;3.42;;;;;;;16.84;69.94;96555.91;5115732;28;20101;-73
2022/07/29 02:42:02;;;;;;;3.92;3.50;;;;;;;16.84;69.49;96562.03;5115921;28;20125;-72
2022/07/29 02:44:29;;;;;;;5.57;3.83;;;;;;;16.84;69.44;96553.25;5115547;28;20054;-74
2022/07/29 02:47:03;;;;;;;4.28;3.80;;;;;;;16.76;69.80;96553.75;5115684;28;20122;-71
2022/07/29 02:49:37;;;;;;;5.65;3.60;;;;;;;16.74;70.55;96556.47;5115510;28;20497;-75
2022/07/29 02:52:08;;;;;;;3.60;3.30;;;;;;;16.76;69.94;96551.09;5115652;28;20071;-70
2022/07/29 02:54:40;;;;;;;4.10;3.78;;;;;;;16.80;69.83;96560.56;5115556;28;20474;-73
2022/07/29 02:57:20;;;;;;;3.92;3.58;;;;;;;16.76;69.71;96556.38;5115559;28;20048;-74
2022/07/29 02:59:51;;;;;;;5.18;3.60;;;;;;;16.79;70.31;96561.47;5115578;28;20457;-70
2022/07/29 03:02:18;;;;;;;5.70;3.78;;;;;;;16.80;70.39;96564.03;5115387;28;20058;-72
2022/07/29 03:04:50;;;;;;;4.25;3.85;;;;;;;16.79;70.26;96558.84;5115248;28;20100;-69
2022/07/29 03:07:20;;;;;;;4.05;3.67;;;;;;;16.76;69.63;96564.31;5115375;28;20047;-73
2022/07/29 03:09:48;;;;;;;4.60;3.70;;;;;;;16.74;70.08;96564.41;5115221;28;20051;-76
2022/07/29 03:12:16;;;;;;;3.92;3.53;;;;;;;16.74;70.30;96560.94;5115756;28;20097;-74
2022/07/29 03:14:45;;;;;;;3.75;3.42;;;;;;;16.78;69.91;96565.06;5115146;28;20054;-74
2022/07/29 03:17:13;;;;;;;7.55;4.00;;;;;;;16.80;69.78;96563.19;5115460;28;20055;-74
2022/07/29 03:19:41;;;;;;;6.97;4.00;;;;;;;16.79;69.58;96566.75;5115024;28;20047;-71
2022/07/29 03:22:10;;;;;;;3.83;3.53;;;;;;;16.80;69.37;96563.19;5115002;28;20425;-73
2022/07/29 03:24:38;;;;;;;5.88;3.45;;;;;;;16.85;69.44;96573.44;5114862;28;20457;-70
2022/07/29 03:27:05;;;;;;;3.83;3.40;;;;;;;16.87;69.28;96564.50;5114890;28;20039;-71
2022/07/29 03:29:33;;;;;;;4.72;3.40;;;;;;;16.91;69.31;96567.78;5114712;28;20130;-74
2022/07/29 03:32:00;;;;;;;3.75;3.10;;;;;;;16.93;69.02;96571.19;5115064;28;20044;-71
2022/07/29 03:34:27;;;;;;;7.55;3.80;;;;;;;16.93;68.93;96571.19;5114590;28;20051;-71
2022/07/29 03:36:55;;;;;;;3.75;3.45;;;;;;;16.99;68.98;96577.88;5114587;28;20048;-74
2022/07/29 03:39:26;;;;;;;3.90;3.50;;;;;;;17.00;69.00;96580.41;5114565;28;20040;-71
2022/07/29 03:41:56;;;;;;;3.90;3.58;;;;;;;16.98;68.84;96577.00;5114534;28;20050;-74
2022/07/29 03:44:26;;;;;;;4.30;3.47;;;;;;;17.00;69.12;96582.19;5114839;28;20122;-72
2022/07/29 03:46:56;;;;;;;5.20;3.50;;;;;;;17.02;69.33;96588.25;5114477;28;20095;-72
2022/07/29 03:49:25;;;;;;;4.95;3.72;;;;;;;17.06;69.02;96584.44;5114607;28;20093;-72
2022/07/29 03:51:53;;;;;;;4.50;3.90;;;;;;;17.12;69.04;96588.53;5113999;28;20409;-71
2022/07/29 03:54:20;;;;;;;5.03;3.70;;;;;;;17.23;69.06;96599.28;5114347;28;20051;-74
2022/07/29 03:56:51;;;;;;;4.47;3.42;;;;;;;17.32;68.49;96608.41;5114395;28;20083;-72
2022/07/29 03:59:21;;;;;;;5.18;3.63;;;;;;;17.40;68.85;96603.44;5114296;28;20043;-73
2022/07/29 04:01:50;;;;;;;3.38;3.08;;;;;;;17.70;68.04;96598.91;5113969;28;20074;-73
2022/07/29 04:04:17;;;;;;;5.97;3.40;;;;;;;18.04;66.99;96598.47;5114253;28;20054;-74
2022/07/29 04:06:46;;;;;;;5.40;3.40;;;;;;;18.50;65.29;96598.94;5114245;28;20107;-75
2022/07/29 04:09:14;;;;;;;6.13;3.38;;;;;;;18.90;64.53;96595.28;5114259;28;20073;-71
2022/07/29 04:11:42;;;;;;;4.63;3.40;;;;;;;19.37;62.94;96607.91;5114418;28;20084;-72
2022/07/29 04:14:11;;;;;;;6.60;3.13;;;;;;;19.78;61.58;96601.34;5113961;28;20117;-74
2022/07/29 04:16:38;;;;;;;3.10;2.80;;;;;;;20.14;60.68;96604.03;5113988;28;20048;-73
2022/07/29 04:19:05;;;;;;;5.20;3.22;;;;;;;20.56;59.76;96598.19;5114058;28;20097;-74
2022/07/29 04:21:37;;;;;;;5.55;3.28;;;;;;;20.93;58.95;96599.78;5114133;28;20415;-72
2022/07/29 04:24:04;;;;;;;7.32;3.30;;;;;;;21.33;57.57;96601.06;5113868;28;20481;-71
2022/07/29 04:26:32;;;;;;;9.75;3.72;;;;;;;21.74;56.70;96600.44;5113786;28;20047;-74
2022/07/29 04:28:59;;;;;;;4.22;2.92;;;;;;;22.17;55.90;96605.84;5113927;28;20131;-72
2022/07/29 04:31:27;;;;;;;7.93;3.92;;;;;;;22.64;54.93;96602.78;5113862;28;20124;-70
2022/07/29 04:33:54;;;;;;;3.97;2.65;;;;;;;23.08;53.71;96609.69;5113758;28;20447;-73
2022/07/29 04:36:22;;;;;;;5.07;3.35;;;;;;;23.52;52.95;96611.22;5114095;28;20085;-73
2022/07/29 04:38:49;;;;;;;11.85;4.30;;;;;;;23.84;51.87;96616.31;5113677;28;20121;-71
2022/07/29 04:41:16;;;;;;;4.18;3.20;;;;;;;24.20;51.44;96614.94;5113896;28;20083;-71
2022/07/29 04:43:43;;;;;;;3.63;3.30;;;;;;;24.54;50.86;96611.75;5113609;28;20100;-72
2022/07/29 04:46:10;;;;;;;3.72;3.42;;;;;;;24.86;49.37;96604.31;5113464;28;20047;-72
2022/07/29 04:48:39;;;;;;;5.72;2.90;;;;;;;25.30;48.94;96610.91;5113572;28;20040;-71
2022/07/29 04:51:06;;;;;;;3.53;3.20;;;;;;;25.71;48.68;96619.41;5113678;28;20054;-71
2022/07/29 04:53:34;;;;;;;4.03;3.05;;;;;;;26.08;47.54;96619.41;5113450;28;20047;-72
2022/07/29 04:56:01;;;;;;;7.63;3.33;;;;;;;26.34;46.68;96624.00;5113591;28;20052;-74
2022/07/29 04:58:28;;;;;;;7.68;3.22;;;;;;;26.68;46.56;96623.22;5113353;28;20047;-71
2022/07/29 05:00:55;;;;;;;6.90;3.33;;;;;;;26.98;46.23;96625.59;5113574;28;20116;-72
2022/07/29 05:03:23;;;;;;;3.38;2.95;;;;;;;27.23;45.95;96631.91;5113396;28;20389;-71
2022/07/29 05:05:51;;;;;;;3.33;2.90;;;;;;;27.56;45.12;96624.94;5117780;28;20100;-70
2022/07/29 05:08:19;;;;;;;4.38;2.90;;;;;;;27.83;44.77;96628.38;5117666;28;20058;-71
2022/07/29 05:10:46;;;;;;;4.80;3.05;;;;;;;28.06;43.75;96633.13;5117520;28;20126;-70
2022/07/29 05:13:13;;;;;;;3.28;3.08;;;;;;;28.28;43.79;96631.59;5117682;28;20094;-72
2022/07/29 05:15:41;;;;;;;4.22;3.83;;;;;;;28.57;42.82;96630.28;5117242;28;20497;-71
2022/07/29 05:18:08;;;;;;;3.33;3.03;;;;;;;28.82;42.00;96634.75;5117639;28;20487;-71
2022/07/29 05:20:35;;;;;;;3.35;2.95;;;;;;;29.06;42.34;96633.03;5117389;28;20373;-71
2022/07/29 05:23:04;;;;;;;3.42;3.13;;;;;;;29.34;41.44;96635.25;5117370;28;20079;-72
2022/07/29 05:25:31;;;;;;;4.03;3.63;;;;;;;29.44;41.98;96637.75;5117299;28;20051;-71
2022/07/29 05:27:59;;;;;;;3.92;3.22;;;;;;;29.59;42.09;96638.69;5117374;28;20469;-72
2022/07/29 05:30:26;;;;;;;3.60;3.30;;;;;;;29.86;41.05;96633.81;5117391;28;20044;-72
2022/07/29 05:32:53;;;;;;;4.35;3.20;;;;;;;30.11;40.69;96638.22;5117120;28;20047;-72
2022/07/29 05:35:20;;;;;;;7.40;4.15;;;;;;;30.42;38.35;96650.78;5117148;28;20386;-71
2022/07/29 05:37:47;;;;;;;5.72;3.50;;;;;;;30.55;38.75;96654.72;5117005;28;20048;-71
2022/07/29 05:40:16;;;;;;;4.25;3.35;;;;;;;30.77;38.41;96650.34;5117183;28;20048;-72
2022/07/29 05:42:43;;;;;;;6.93;3.85;;;;;;;31.01;37.46;96648.41;5117036;28;20055;-70
2022/07/29 05:45:11;;;;;;;5.05;3.15;;;;;;;31.38;37.04;96649.34;5116906;28;20051;-70
2022/07/29 05:47:38;;;;;;;6.50;3.20;;;;;;;31.64;35.58;96641.72;5116870;28;20052;-71
2022/07/29 05:50:07;;;;;;;4.40;3.17;;;;;;;31.85;35.00;96643.63;5116886;28;20043;-71
2022/07/29 05:52:34;;;;;;;4.70;2.85;;;;;;;32.03;34.78;96643.19;5116803;28;20127;-71
2022/07/29 05:55:04;;;;;;;3.45;3.15;;;;;;;32.26;34.44;96654.84;5116896;28;20054;-71
2022/07/29 05:57:32;;;;;;;7.70;3.20;;;;;;;32.52;35.00;96650.75;5116691;28;20058;-70
2022/07/29 06:00:00;;;;;;;4.05;3.00;;;;;;;32.81;34.26;96646.16;5116715;28;20043;-71
2022/07/29 06:02:27;;;;;;;8.75;3.33;;;;;;;32.87;33.96;96647.25;5116377;28;20083;-71
2022/07/29 06:04:54;;;;;;;4.00;2.80;;;;;;;33.01;33.44;96650.84;5116543;28;20063;-70
2022/07/29 06:07:21;;;;;;;3.15;2.85;;;;;;;33.21;33.53;96655.59;5116578;28;20138;-70
2022/07/29 06:09:49;;;;;;;4.38;2.90;;;;;;;33.53;33.37;96647.81;5116561;28;20477;-70
2022/07/29 06:12:16;;;;;;;5.78;3.03;;;;;;;33.78;31.54;96650.84;5116590;28;20047;-70
2022/07/29 06:14:44;;;;;;;5.63;2.80;;;;;;;33.99;31.35;96651.72;5115876;28;20053;-70
2022/07/29 06:17:12;;;;;;;6.82;2.40;;;;;;;34.16;31.04;96654.09;5116275;28;20112;-70
2022/07/29 06:19:39;;;;;;;6.85;2.53;;;;;;;33.84;31.40;96643.78;5116227;28;20055;-70
2022/07/29 06:22:06;;;;;;;3.45;2.20;;;;;;;33.19;25.37;96650.38;5116245;28;20070;-70
2022/07/29 06:24:34;;;;;;;3.72;1.83;;;;;;;33.06;26.42;96647.59;5116219;28;20056;-70
2022/07/29 06:27:01;;;;;;;2.22;2.03;;;;;;;33.21;27.25;96648.31;5116348;28;20051;-70
2022/07/29 06:29:28;;;;;;;2.72;2.10;;;;;;;33.42;26.93;96643.81;5116128;28;20043;-69
2022/07/29 06:31:57;;;;;;;5.25;2.60;;;;;;;33.31;26.76;96649.81;5116052;28;20040;-70
2022/07/29 06:34:24;;;;;;;4.93;2.25;;;;;;;33.09;28.60;96648.03;5115957;28;20401;-69
2022/07/29 06:36:52;;;;;;;5.72;2.42;;;;;;;32.89;27.08;96637.88;5115849;28;20055;-70
2022/07/29 06:39:20;;;;;;;4.68;2.30;;;;;;;32.73;28.09;96657.13;5115826;28;20043;-70
2022/07/29 06:41:49;;;;;;;2.67;1.98;;;;;;;32.49;27.99;96640.31;5115805;28;20108;-70
2022/07/29 06:44:17;;;;;;;3.85;2.22;;;;;;;32.51;27.57;96640.97;5115741;28;20047;-70
2022/07/29 06:46:44;;;;;;;3.05;2.00;;;;;;;32.94;27.27;96645.41;5115714;28;20051;-70
2022/07/29 06:49:13;;;;;;;4.07;2.20;;;;;;;33.32;27.17;96641.50;5115615;28;20086;-70
2022/07/29 06:51:40;;;;;;;5.35;1.98;;;;;;;33.76;27.02;96639.38;5115549;28;20047;-70
2022/07/29 06:54:08;;;;;;;4.07;2.08;;;;;;;34.22;26.52;96636.97;5115776;28;20043;-70
2022/07/29 06:56:37;;;;;;;2.63;2.10;;;;;;;34.60;25.03;96645.53;5115502;28;20484;-70
2022/07/29 06:59:05;;;;;;;3.40;2.05;;;;;;;34.72;24.23;96648.47;5115524;28;20405;-70
2022/07/29 07:01:32;;;;;;;3.75;1.90;;;;;;;34.44;25.63;96647.63;5115425;28;20050;-70
2022/07/29 07:03:59;;;;;;;2.30;1.95;;;;;;;34.03;25.07;96644.84;5115124;28;20035;-69
2022/07/29 07:06:27;;;;;;;2.20;2.00;;;;;;;33.68;25.87;96638.72;5115372;28;20458;-69
2022/07/29 07:08:55;;;;;;;2.75;1.88;;;;;;;33.47;28.24;96640.50;5115482;28;20465;-70
2022/07/29 07:11:22;;;;;;;4.60;2.60;;;;;;;33.01;27.18;96640.88;5115373;28;20047;-70
2022/07/29 07:13:50;;;;;;;4.68;2.47;;;;;;;33.14;26.99;96640.13;5115142;28;20562;-70
2022/07/29 07:16:17;;;;;;;5.97;2.47;;;;;;;33.21;25.66;96648.31;5115094;28;20052;-70
2022/07/29 07:18:45;;;;;;;3.70;2.30;;;;;;;33.10;25.78;96636.16;5115236;28;20046;-70
2022/07/29 07:21:12;;;;;;;3.80;2.15;;;;;;;32.88;25.45;96636.22;5115187;28;20040;-70
2022/07/29 07:23:41;;;;;;;7.82;2.60;;;;;;;32.69;25.95;96628.78;5115223;28;20455;-69
2022/07/29 07:26:08;;;;;;;2.53;2.33;;;;;;;32.63;27.17;96633.13;5114625;28;20070;-70
2022/07/29 07:28:36;;;;;;;2.85;2.40;;;;;;;32.62;26.99;96634.16;5114563;28;20409;-70
2022/07/29 07:31:03;;;;;;;8.23;2.63;;;;;;;32.61;26.72;96636.03;5114921;28;20051;-70
2022/07/29 07:33:30;;;;;;;6.60;2.40;;;;;;;33.01;28.08;96624.63;5114930;28;20124;-70
2022/07/29 07:35:59;;;;;;;4.35;2.28;;;;;;;33.61;27.00;96622.41;5114589;28;20055;-70
2022/07/29 07:38:26;;;;;;;6.25;2.08;;;;;;;34.01;26.46;96627.13;5114961;28;20051;-70
2022/07/29 07:40:54;;;;;;;2.65;2.38;;;;;;;33.99;26.18;96624.63;5114782;28;20055;-70
2022/07/29 07:43:22;;;;;;;2.42;2.20;;;;;;;33.72;26.31;96627.25;5114514;28;20050;-70
2022/07/29 07:45:50;;;;;;;2.50;2.30;;;;;;;33.55;26.18;96632.19;5114557;28;20481;-70
2022/07/29 07:48:17;;;;;;;7.97;2.40;;;;;;;33.08;27.04;96627.38;5114567;28;20043;-69
2022/07/29 07:50:44;;;;;;;6.00;2.42;;;;;;;32.57;27.43;96623.94;5114428;28;20040;-70
2022/07/29 07:53:11;;;;;;;4.60;2.33;;;;;;;32.46;27.91;96636.09;5114451;28;20083;-70
2022/07/29 07:55:41;;;;;;;8.13;2.33;;;;;;;32.39;28.45;96630.63;5114352;28;20088;-70
2022/07/29 07:58:10;;;;;;;2.60;2.25;;;;;;;32.52;28.13;96629.09;5114377;28;20047;-70
2022/07/29 08:00:37;;;;;;;2.42;2.22;;;;;;;32.88;28.02;96627.25;5114149;28;20052;-70
2022/07/29 08:03:04;;;;;;;2.97;2.35;;;;;;;32.92;27.01;96628.50;5113976;28;20051;-69
2022/07/29 08:05:32;;;;;;;4.10;2.45;;;;;;;32.73;27.69;96630.06;5114354;28;20138;-69
2022/07/29 08:07:59;;;;;;;8.13;2.47;;;;;;;32.66;28.67;96619.22;5114228;28;20492;-69
2022/07/29 08:13:12;;;;;;;3.22;2.35;;;;;;;33.56;27.32;96620.31;5114250;28;20528;-69
2022/07/29 08:15:42;;;;;;;3.30;2.33;;;;;;;33.43;26.64;96612.94;5114010;28;20104;-69
2022/07/29 08:18:10;;;;;;;7.30;3.17;;;;;;;33.52;26.97;96609.03;5114020;28;20052;-69
2022/07/29 08:20:38;;;;;;;3.70;2.05;;;;;;;33.61;27.04;96609.72;5113991;28;20047;-69
2022/07/29 08:23:08;;;;;;;3.72;2.40;;;;;;;33.75;27.71;96607.88;5114069;28;20051;-69
2022/07/29 08:25:37;;;;;;;6.57;2.88;;;;;;;34.21;27.21;96610.03;5113871;28;20048;-69
2022/07/29 08:28:05;;;;;;;2.90;2.22;;;;;;;34.45;26.38;96603.16;5113857;28;20040;-69
2022/07/29 08:30:34;;;;;;;3.92;2.85;;;;;;;33.97;27.12;96615.84;5113772;28;20055;-69
2022/07/29 08:33:01;;;;;;;5.13;2.92;;;;;;;33.50;26.78;96613.81;5113832;28;20089;-69
2022/07/29 08:35:29;;;;;;;2.85;2.58;;;;;;;33.31;27.92;96620.00;5113585;28;20044;-69
2022/07/29 08:37:56;;;;;;;4.38;2.47;;;;;;;33.65;27.46;96619.09;5113540;28;20096;-69
2022/07/29 08:40:24;;;;;;;13.73;2.92;;;;;;;33.38;27.18;96620.88;5113663;28;20138;-70
2022/07/29 08:42:52;;;;;;;9.15;3.03;;;;;;;33.40;27.53;96618.78;5113714;28;20043;-69
2022/07/29 08:45:19;;;;;;;5.90;2.67;;;;;;;33.47;27.44;96619.63;5113750;28;20079;-69
2022/07/29 08:47:48;;;;;;;3.05;2.55;;;;;;;33.32;27.39;96614.38;5113592;28;20047;-69
2022/07/29 08:50:15;;;;;;;4.60;2.33;;;;;;;33.57;28.07;96604.88;5113464;28;20139;-69
2022/07/29 08:52:43;;;;;;;4.90;2.58;;;;;;;34.00;27.32;96601.88;5113583;28;20050;-70
2022/07/29 08:55:11;;;;;;;8.95;2.63;;;;;;;33.93;26.70;96605.59;5113435;28;20050;-69
2022/07/29 08:57:41;;;;;;;7.32;2.60;;;;;;;33.33;26.79;96605.22;5113373;28;20058;-69
2022/07/29 09:00:10;;;;;;;2.45;2.25;;;;;;;33.13;27.63;96599.69;5113534;28;20101;-69
2022/07/29 09:02:41;;;;;;;8.65;2.90;;;;;;;32.68;27.66;96595.47;5113256;28;20054;-69
2022/07/29 09:05:12;;;;;;;4.70;2.60;;;;;;;32.94;28.14;96596.66;5113294;28;20039;-69
2022/07/29 09:07:42;;;;;;;4.18;2.20;;;;;;;33.35;27.82;96597.69;5113508;28;20073;-69
2022/07/29 09:10:10;;;;;;;6.13;2.67;;;;;;;33.89;27.36;96578.06;5113390;28;20127;-69
2022/07/29 09:12:37;;;;;;;4.28;2.70;;;;;;;34.34;27.36;96582.91;5113590;28;20126;-69
2022/07/29 09:15:05;;;;;;;2.85;2.38;;;;;;;34.47;25.66;96587.50;5113406;28;20065;-69
2022/07/29 09:17:43;;;;;;;4.22;2.55;;;;;;;33.75;26.89;96585.34;5113243;28;20049;-69
2022/07/29 09:20:14;;;;;;;7.63;2.40;;;;;;;33.10;27.91;96579.28;5113232;28;20044;-69
2022/07/29 09:22:41;;;;;;;5.18;3.00;;;;;;;32.96;27.41;96591.06;5113277;28;20051;-69
2022/07/29 09:25:09;;;;;;;2.55;2.35;;;;;;;32.81;28.96;96593.88;5113193;28;20101;-69
2022/07/29 09:27:36;;;;;;;6.80;2.88;;;;;;;32.65;28.23;96583.19;5113164;28;20043;-69
2022/07/29 09:30:06;;;;;;;4.45;2.67;;;;;;;32.69;28.08;96575.50;5113291;28;20543;-69
2022/07/29 09:32:34;;;;;;;3.50;2.75;;;;;;;32.71;28.32;96580.72;5113308;28;20047;-69
2022/07/29 09:35:22;;;;;;;4.47;2.95;;;;;;;32.67;28.15;96574.00;5113423;28;20134;-69
2022/07/29 09:37:50;;;;;;;5.38;2.80;;;;;;;32.53;28.50;96574.78;5113062;28;20051;-69
2022/07/29 09:40:20;;;;;;;4.55;2.38;;;;;;;32.71;27.98;96578.81;5113112;28;20132;-69
2022/07/29 09:42:48;;;;;;;5.30;2.53;;;;;;;32.59;28.15;96569.63;5113142;28;20594;-69
2022/07/29 09:45:28;;;;;;;3.53;2.17;;;;;;;32.83;28.44;96581.00;5112768;28;20291;-69
2022/07/29 09:47:57;;;;;;;5.13;2.50;;;;;;;32.92;28.21;96562.72;5113179;28;20051;-69
2022/07/29 09:50:36;;;;;;;3.45;2.50;;;;;;;33.10;27.61;96571.16;5114519;28;20482;-69
2022/07/29 09:53:03;;;;;;;3.33;2.73;;;;;;;33.09;27.42;96577.63;5116952;28;20051;-69
2022/07/29 09:55:31;;;;;;;4.13;2.20;;;;;;;32.51;27.66;96570.59;5116840;28;20044;-69
2022/07/29 09:58:17;;;;;;;8.05;2.40;;;;;;;32.39;27.84;96571.09;5116635;28;20050;-69
2022/07/29 10:00:45;;;;;;;5.38;2.80;;;;;;;32.44;28.81;96570.50;5116687;28;20055;-69
2022/07/29 10:03:13;;;;;;;3.83;2.47;;;;;;;32.52;28.42;96570.41;5116452;28;20075;-69
2022/07/29 10:05:42;;;;;;;3.55;2.63;;;;;;;32.82;27.49;96568.47;5116551;28;20048;-69
2022/07/29 10:08:09;;;;;;;4.43;2.55;;;;;;;32.92;27.16;96566.25;5116556;28;20055;-69
2022/07/29 10:10:39;;;;;;;4.00;2.53;;;;;;;33.17;26.64;96556.81;5116462;28;20058;-69
2022/07/29 10:13:07;;;;;;;3.75;2.50;;;;;;;32.94;27.02;96550.63;5116657;28;20044;-69
2022/07/29 10:15:38;;;;;;;7.22;3.00;;;;;;;33.20;27.59;96551.78;5116441;28;20047;-69
2022/07/29 10:18:06;;;;;;;7.32;2.83;;;;;;;33.29;27.12;96552.47;5116260;28;20124;-69
2022/07/29 10:20:34;;;;;;;3.58;2.60;;;;;;;33.29;26.78;96544.34;5116220;28;20127;-69
2022/07/29 10:23:03;;;;;;;5.78;3.10;;;;;;;33.11;27.24;96543.00;5116316;28;20122;-68
2022/07/29 10:25:31;;;;;;;4.65;2.50;;;;;;;32.35;27.78;96556.28;5116122;28;20558;-70
2022/07/29 10:27:59;;;;;;;5.35;2.53;;;;;;;32.47;28.81;96551.16;5116140;28;20051;-69
2022/07/29 10:30:27;;;;;;;4.10;2.30;;;;;;;32.63;27.82;96552.75;5116124;28;20066;-69
2022/07/29 10:33:22;;;;;;;4.65;2.55;;;;;;;32.45;28.07;96545.13;5116196;28;20047;-69
2022/07/29 10:36:03;;;;;;;3.65;2.40;;;;;;;32.47;27.90;96540.34;5079304;28;20047;-69
2022/07/29 10:38:43;;;;;;;;;;;;;;;32.75;27.99;96536.78;5116410;28;20047;-69
2022/07/29 10:41:32;;;;;;;5.57;2.70;;;;;;;32.95;28.47;96525.22;5115848;28;19927;-69
2022/07/29 10:44:02;;;;;;;5.57;2.53;;;;;;;32.93;27.30;96534.59;5115989;28;20482;-69
2022/07/29 10:46:36;;;;;;;2.65;2.45;;;;;;;32.62;28.24;96536.72;5115898;28;20390;-69
2022/07/29 10:49:08;;;;;;;2.67;2.17;;;;;;;32.63;27.90;96535.69;5115677;28;20044;-70
2022/07/29 10:52:04;;;;;;;7.45;2.67;;;;;;;32.81;27.49;96535.16;5115642;28;20463;-69
2022/07/29 10:54:44;;;;;;;4.78;2.47;;;;;;;32.60;28.43;96534.19;5068946;28;20046;-69
2022/07/29 10:57:15;;;;;;;;;;;;;;;32.46;28.66;96535.13;5116153;28;20079;-69
2022/07/29 10:59:44;;;;;;;6.57;2.65;;;;;;;32.09;29.28;96532.59;5115647;28;19926;-69
2022/07/29 11:02:43;;;;;;;4.22;2.50;;;;;;;32.36;29.47;96524.69;5115238;28;20122;-69
2022/07/29 11:05:12;;;;;;;6.72;2.42;;;;;;;32.47;27.85;96526.00;5115378;28;20526;-69
2022/07/29 11:08:01;;;;;;;3.33;2.33;;;;;;;32.38;27.76;96523.44;5115417;28;20075;-69
2022/07/29 11:10:30;;;;;;;3.22;2.20;;;;;;;32.24;27.28;96527.91;5115410;28;20382;-69
2022/07/29 11:12:58;;;;;;;3.22;2.40;;;;;;;32.05;27.71;96523.22;5115380;28;20055;-69
2022/07/29 11:15:26;;;;;;;4.00;2.65;;;;;;;31.87;28.12;96530.72;5115177;28;20044;-69
2022/07/29 11:18:12;;;;;;;6.15;2.70;;;;;;;31.96;28.25;96525.22;5115017;28;20047;-69
2022/07/29 11:20:41;;;;;;;3.50;2.60;;;;;;;32.03;28.28;96513.41;5115038;28;20476;-69
2022/07/29 11:23:31;;;;;;;5.00;2.70;;;;;;;32.40;27.95;96512.41;5115144;28;20052;-69
2022/07/29 11:26:23;;;;;;;5.55;2.33;;;;;;;32.11;27.96;96509.72;5115112;28;20050;-69
2022/07/29 11:28:56;;;;;;;5.45;2.88;;;;;;;32.07;27.88;96511.16;5114839;28;20425;-69
2022/07/29 11:31:41;;;;;;;4.50;2.20;;;;;;;32.32;28.34;96513.41;5114986;28;20048;-69
2022/07/29 11:34:19;;;;;;;2.85;2.50;;;;;;;32.71;27.35;96503.03;5114804;28;20047;-69
2022/07/29 11:37:24;;;;;;;3.90;2.80;;;;;;;32.66;27.61;96500.13;5114627;28;20096;-69
2022/07/29 11:40:16;;;;;;;8.70;2.67;;;;;;;32.34;28.03;96492.41;5114751;28;20043;-68
2022/07/29 11:42:53;;;;;;;6.72;2.85;;;;;;;32.23;27.71;96506.50;5114552;28;20044;-67
2022/07/29 11:45:31;;;;;;;4.80;2.33;;;;;;;32.02;27.84;96497.38;5114650;28;20048;-67
2022/07/29 11:48:00;;;;;;;5.45;2.45;;;;;;;31.95;28.46;96497.34;5114604;28;20051;-67
2022/07/29 11:50:36;;;;;;;5.40;2.28;;;;;;;32.07;28.09;96497.63;5114507;28;20054;-67